Time;durP1;ratioP1;P1;durP2;ratioP2;P2;SDS_P1;SDS_P2;PMS_P1;PMS_P2;Temp;Humidity;BMP_temperature;BMP_pressure;BME280_temperature;BME280_humidity;BME280_pressure;Samples;Min_cycle;Max_cycle;Signal;HPM_P1;HPM_P2
2023/12/16 00:02:10;;;;;;;25.80;12.45;;;;;;;1.63;100.00;96001.00;5112855;28;20043;-70
2023/12/16 00:04:57;;;;;;;22.25;10.90;;;;;;;1.70;100.00;95992.44;5086517;28;20044;-70
2023/12/16 00:07:44;;;;;;;20.58;9.98;;;;;;;1.46;100.00;95982.72;5114156;28;20043;-71
2023/12/16 00:10:31;;;;;;;20.47;9.20;;;;;;;1.43;100.00;95960.88;5107609;28;20059;-70
2023/12/16 00:13:18;;;;;;;19.38;8.77;;;;;;;1.43;100.00;95964.41;5103675;28;20043;-70
2023/12/16 00:16:06;;;;;;;21.33;8.68;;;;;;;1.18;100.00;95960.34;5113502;28;20047;-69
2023/12/16 00:18:53;;;;;;;16.20;7.63;;;;;;;0.95;100.00;95952.22;5114420;28;20044;-70
2023/12/16 00:21:40;;;;;;;16.65;7.32;;;;;;;0.89;100.00;95952.63;5102008;28;20044;-70
2023/12/16 00:24:27;;;;;;;23.97;7.93;;;;;;;0.79;100.00;95964.47;5114151;28;20549;-70
2023/12/16 00:27:14;;;;;;;37.25;8.95;;;;;;;0.92;100.00;95995.25;5113847;28;20411;-70
2023/12/16 00:30:02;;;;;;;32.17;8.55;;;;;;;1.07;100.00;96015.78;5113411;28;20055;-69
2023/12/16 00:32:49;;;;;;;22.35;8.95;;;;;;;1.00;100.00;95998.03;5112263;28;20130;-70
2023/12/16 00:35:36;;;;;;;49.10;9.32;;;;;;;1.12;100.00;95980.50;5113042;28;20050;-70
2023/12/16 00:38:23;;;;;;;64.53;9.40;;;;;;;1.15;100.00;95983.41;5109464;28;20051;-70
2023/12/16 00:41:10;;;;;;;36.40;8.00;;;;;;;1.22;100.00;95987.59;5108200;28;20408;-70
2023/12/16 00:43:57;;;;;;;24.08;8.38;;;;;;;1.26;100.00;95997.50;5113531;28;20044;-70
2023/12/16 00:46:44;;;;;;;45.65;8.02;;;;;;;0.97;100.00;96006.78;5114220;28;20040;-70
2023/12/16 00:49:31;;;;;;;102.53;12.85;;;;;;;0.62;100.00;96012.91;5112571;28;20047;-70
2023/12/16 00:52:18;;;;;;;53.33;8.47;;;;;;;0.45;100.00;96013.50;5113160;28;20044;-70
2023/12/16 00:55:06;;;;;;;68.95;9.15;;;;;;;0.64;100.00;96027.69;5106787;28;20051;-70
2023/12/16 00:57:53;;;;;;;57.20;8.80;;;;;;;0.78;100.00;96023.09;5112405;28;20128;-70
2023/12/16 01:00:42;;;;;;;88.15;8.10;;;;;;;0.67;100.00;96016.31;5108545;28;20197;-70
2023/12/16 01:03:29;;;;;;;143.90;11.63;;;;;;;0.61;100.00;96008.59;5102179;28;20052;-71
2023/12/16 01:06:16;;;;;;;80.87;9.93;;;;;;;0.56;100.00;96018.41;5114010;28;20105;-70
2023/12/16 01:09:03;;;;;;;106.25;9.77;;;;;;;0.63;100.00;96009.91;5113884;28;20420;-70
2023/12/16 01:11:50;;;;;;;73.75;13.55;;;;;;;0.69;100.00;96005.19;5112392;28;20060;-70
2023/12/16 01:14:37;;;;;;;134.85;13.25;;;;;;;0.79;100.00;96011.19;5111787;28;20073;-70
2023/12/16 01:17:24;;;;;;;159.05;10.65;;;;;;;0.81;100.00;96002.00;5112725;28;20048;-70
2023/12/16 01:20:11;;;;;;;152.57;10.00;;;;;;;0.85;100.00;96003.00;5113301;28;20079;-70
2023/12/16 01:22:58;;;;;;;83.53;7.97;;;;;;;0.79;100.00;96018.50;5112133;28;20047;-70
2023/12/16 01:25:45;;;;;;;142.30;8.98;;;;;;;0.78;100.00;96014.97;5111476;28;20051;-71
2023/12/16 01:28:32;;;;;;;44.80;7.57;;;;;;;0.86;100.00;96018.88;5102218;28;20040;-70
2023/12/16 01:31:19;;;;;;;45.85;7.18;;;;;;;0.99;100.00;96011.88;5112939;28;20104;-70
2023/12/16 01:34:06;;;;;;;72.23;8.37;;;;;;;1.05;100.00;96018.78;5111157;28;20048;-70
2023/12/16 01:36:53;;;;;;;35.25;8.35;;;;;;;1.06;100.00;96028.47;5095873;28;20118;-70
2023/12/16 01:39:40;;;;;;;43.03;8.32;;;;;;;1.08;100.00;96037.09;5111999;28;20058;-70
2023/12/16 01:42:27;;;;;;;21.55;7.57;;;;;;;1.20;100.00;96048.19;5112444;28;20036;-69
2023/12/16 01:45:18;;;;;;;27.38;7.68;;;;;;;1.24;100.00;96059.22;5111692;28;20071;-70
2023/12/16 01:48:07;;;;;;;22.87;7.80;;;;;;;1.26;100.00;96057.00;5111407;28;20458;-70
2023/12/16 01:50:55;;;;;;;17.60;7.63;;;;;;;1.28;100.00;96056.69;5111412;28;20078;-70
2023/12/16 01:53:42;;;;;;;23.35;8.77;;;;;;;1.09;100.00;96054.94;5101022;28;20490;-69
2023/12/16 01:56:30;;;;;;;22.02;9.23;;;;;;;1.10;100.00;96058.44;5111761;28;20040;-70
2023/12/16 01:59:17;;;;;;;24.25;9.40;;;;;;;1.28;100.00;96051.28;5111019;28;20046;-69
2023/12/16 02:02:05;;;;;;;20.57;8.23;;;;;;;1.32;100.00;96044.16;5109317;28;20044;-69
2023/12/16 02:04:52;;;;;;;21.65;8.20;;;;;;;1.27;100.00;96046.97;5098573;28;20051;-69
2023/12/16 02:07:39;;;;;;;18.27;7.80;;;;;;;1.35;100.00;96049.00;5111894;28;20488;-69
2023/12/16 02:10:26;;;;;;;16.65;7.10;;;;;;;1.45;100.00;96047.94;5111665;28;20043;-69
2023/12/16 02:13:13;;;;;;;18.08;7.53;;;;;;;1.36;100.00;96048.66;5098804;28;20488;-68
2023/12/16 02:16:00;;;;;;;15.10;6.30;;;;;;;1.45;100.00;96051.47;5110659;28;20377;-68
2023/12/16 02:18:49;;;;;;;15.50;6.82;;;;;;;1.42;100.00;96045.84;5110512;28;20109;-69
2023/12/16 02:21:36;;;;;;;13.57;6.20;;;;;;;1.47;100.00;96043.03;5110769;28;20043;-69
2023/12/16 02:24:23;;;;;;;15.02;6.43;;;;;;;1.44;100.00;96044.44;5111003;28;20407;-69
2023/12/16 02:27:10;;;;;;;13.23;6.68;;;;;;;1.53;100.00;96041.81;5111628;28;20046;-69
2023/12/16 02:29:57;;;;;;;14.57;6.70;;;;;;;1.51;100.00;96034.00;5110436;28;20044;-68
2023/12/16 02:32:44;;;;;;;13.10;6.25;;;;;;;1.37;100.00;96031.34;5111109;28;20040;-69
2023/12/16 02:35:31;;;;;;;13.07;6.43;;;;;;;1.50;100.00;96016.16;5096260;28;20048;-69
2023/12/16 02:38:18;;;;;;;15.40;6.80;;;;;;;1.21;100.00;96024.66;5110368;28;20408;-69
2023/12/16 02:41:05;;;;;;;16.63;7.28;;;;;;;1.04;100.00;96021.78;5111926;28;20043;-68
2023/12/16 02:43:52;;;;;;;24.53;6.80;;;;;;;0.77;100.00;96029.63;5100291;28;20051;-69
2023/12/16 02:46:39;;;;;;;18.02;6.82;;;;;;;0.97;100.00;96024.91;5110288;28;20089;-69
2023/12/16 02:49:28;;;;;;;18.02;7.47;;;;;;;1.19;100.00;96021.47;5109928;28;20048;-69
2023/12/16 02:52:15;;;;;;;39.83;8.20;;;;;;;1.26;100.00;96021.84;5111163;28;20136;-69
2023/12/16 02:55:03;;;;;;;18.10;7.38;;;;;;;1.23;100.00;96021.63;5096025;28;20403;-69
2023/12/16 02:57:49;;;;;;;15.80;6.97;;;;;;;1.37;100.00;96038.66;5110045;28;20139;-69
2023/12/16 03:00:36;;;;;;;17.85;7.40;;;;;;;1.44;100.00;96030.91;5111052;28;20070;-70
2023/12/16 03:03:23;;;;;;;16.20;7.13;;;;;;;1.53;100.00;96049.91;5100166;28;20136;-69
2023/12/16 03:06:10;;;;;;;16.80;7.25;;;;;;;1.54;100.00;96068.56;5095732;28;20493;-68
2023/12/16 03:08:57;;;;;;;16.85;7.40;;;;;;;1.37;100.00;96074.63;5111022;28;20043;-69
2023/12/16 03:11:44;;;;;;;17.00;7.50;;;;;;;1.52;100.00;96073.47;5111286;28;20059;-69
2023/12/16 03:14:32;;;;;;;14.57;6.53;;;;;;;1.61;100.00;96073.59;5111761;28;20044;-69
2023/12/16 03:17:19;;;;;;;15.85;6.97;;;;;;;1.60;100.00;96080.09;5112071;28;20051;-69
2023/12/16 03:20:08;;;;;;;14.55;6.60;;;;;;;1.64;100.00;96078.38;5111336;28;20054;-69
2023/12/16 03:22:54;;;;;;;14.88;6.47;;;;;;;1.67;100.00;96068.81;5110489;28;20043;-69
2023/12/16 03:25:44;;;;;;;15.13;6.60;;;;;;;1.49;100.00;96074.09;5110373;28;20412;-69
2023/12/16 03:28:31;;;;;;;13.25;6.28;;;;;;;1.37;100.00;96071.13;5110488;28;20052;-70
2023/12/16 03:31:18;;;;;;;16.45;7.05;;;;;;;1.22;100.00;96068.72;5103735;28;20067;-70
2023/12/16 03:34:05;;;;;;;17.10;7.53;;;;;;;1.10;100.00;96072.75;5103691;28;20412;-70
2023/12/16 03:36:52;;;;;;;17.15;7.63;;;;;;;1.15;100.00;96080.75;5110492;28;20044;-70
2023/12/16 03:39:40;;;;;;;18.07;7.63;;;;;;;1.33;100.00;96087.16;5110037;28;20400;-71
2023/12/16 03:42:27;;;;;;;19.88;8.27;;;;;;;1.47;100.00;96084.44;5100513;28;20130;-70
2023/12/16 03:45:14;;;;;;;17.25;7.38;;;;;;;1.54;100.00;96086.72;5110645;28;20040;-70
2023/12/16 03:48:01;;;;;;;17.15;7.03;;;;;;;1.63;100.00;96084.06;5110140;28;20048;-70
2023/12/16 03:50:48;;;;;;;15.90;6.72;;;;;;;1.67;100.00;96087.78;5110048;28;20126;-70
2023/12/16 03:53:35;;;;;;;15.87;7.07;;;;;;;1.29;100.00;96096.16;5114601;28;20055;-70
2023/12/16 03:56:22;;;;;;;16.35;7.22;;;;;;;1.13;100.00;96093.00;5114318;28;20043;-70
2023/12/16 03:59:09;;;;;;;17.35;7.47;;;;;;;1.14;100.00;96089.97;5113700;28;20052;-70
2023/12/16 04:01:55;;;;;;;18.27;7.95;;;;;;;1.36;100.00;96097.34;5113272;28;20047;-70
2023/12/16 04:04:42;;;;;;;16.33;7.43;;;;;;;1.54;100.00;96105.66;5112982;28;20396;-70
2023/12/16 04:07:29;;;;;;;29.00;13.40;;;;;;;1.53;100.00;96098.63;5114401;28;20048;-70
2023/12/16 04:10:16;;;;;;;18.75;8.45;;;;;;;1.54;100.00;96094.84;5115129;28;20420;-70
2023/12/16 04:13:03;;;;;;;28.10;17.27;;;;;;;1.55;100.00;96096.41;5101407;28;20500;-70
2023/12/16 04:15:52;;;;;;;33.30;19.95;;;;;;;1.60;100.00;96090.91;5112588;28;20519;-70
2023/12/16 04:18:39;;;;;;;21.67;12.10;;;;;;;1.72;100.00;96079.56;5113385;28;20128;-69
2023/12/16 04:21:26;;;;;;;15.87;7.07;;;;;;;1.56;100.00;96076.38;5113188;28;20134;-70
2023/12/16 04:24:13;;;;;;;14.05;6.78;;;;;;;1.62;100.00;96074.38;5100662;28;20420;-70
2023/12/16 04:27:00;;;;;;;13.00;6.63;;;;;;;1.68;100.00;96070.44;5112979;28;20044;-70
2023/12/16 04:29:48;;;;;;;12.75;5.88;;;;;;;1.71;100.00;96076.06;5112972;28;20051;-70
2023/12/16 04:32:34;;;;;;;12.45;6.22;;;;;;;1.78;100.00;96071.00;5113060;28;20519;-70
2023/12/16 04:35:21;;;;;;;15.37;6.37;;;;;;;1.46;100.00;96069.28;5112920;28;20046;-70
2023/12/16 04:38:09;;;;;;;12.10;6.45;;;;;;;1.24;100.00;96080.06;5113593;28;20048;-70
2023/12/16 04:40:56;;;;;;;12.40;5.95;;;;;;;1.30;100.00;96076.94;5112890;28;20040;-70
2023/12/16 04:43:43;;;;;;;13.05;5.78;;;;;;;1.43;100.00;96086.16;5112821;28;20048;-70
2023/12/16 04:46:30;;;;;;;12.23;6.40;;;;;;;1.51;100.00;96087.31;5113330;28;20047;-70
2023/12/16 04:49:16;;;;;;;13.13;5.77;;;;;;;1.60;100.00;96091.69;5112400;28;20613;-70
2023/12/16 04:52:04;;;;;;;12.05;5.85;;;;;;;1.69;100.00;96091.81;5113004;28;20052;-70
2023/12/16 04:54:51;;;;;;;12.23;6.03;;;;;;;1.77;100.00;96091.06;5112466;28;20403;-70
2023/12/16 04:57:38;;;;;;;12.45;6.07;;;;;;;1.72;100.00;96082.25;5112491;28;20043;-70
2023/12/16 05:00:26;;;;;;;12.00;5.63;;;;;;;1.80;100.00;96086.94;5112368;28;20052;-71
2023/12/16 05:03:13;;;;;;;12.93;6.57;;;;;;;1.46;100.00;96087.44;5112900;28;20048;-70
2023/12/16 05:06:00;;;;;;;13.52;6.32;;;;;;;1.23;100.00;96100.91;5112481;28;20047;-70
2023/12/16 05:08:47;;;;;;;13.60;6.90;;;;;;;1.02;100.00;96102.41;5101136;28;20040;-70
2023/12/16 05:11:34;;;;;;;15.98;7.18;;;;;;;0.97;100.00;96097.91;5112865;28;20055;-70
2023/12/16 05:14:22;;;;;;;13.38;6.65;;;;;;;0.97;100.00;96096.00;5113187;28;20051;-70
2023/12/16 05:17:09;;;;;;;14.53;7.00;;;;;;;1.27;100.00;96101.91;5112332;28;20048;-70
2023/12/16 05:19:56;;;;;;;14.68;6.38;;;;;;;1.31;100.00;96096.66;5112398;28;20481;-70
2023/12/16 05:22:43;;;;;;;12.88;6.10;;;;;;;1.49;100.00;96089.53;5111886;28;20043;-70
2023/12/16 05:25:30;;;;;;;13.73;6.60;;;;;;;1.55;100.00;96094.53;5097632;28;20131;-69
2023/12/16 05:28:17;;;;;;;14.73;7.88;;;;;;;1.68;100.00;96092.88;5102577;28;20047;-70
2023/12/16 05:31:04;;;;;;;13.37;6.60;;;;;;;1.67;100.00;96096.72;5111850;28;20058;-70
2023/12/16 05:33:51;;;;;;;12.50;6.68;;;;;;;1.50;100.00;96097.34;5111738;28;20128;-70
2023/12/16 05:36:38;;;;;;;14.40;6.72;;;;;;;1.66;100.00;96089.69;5112600;28;20400;-70
2023/12/16 05:39:26;;;;;;;12.93;6.50;;;;;;;1.70;100.00;96092.59;5112478;28;20082;-70
2023/12/16 05:42:13;;;;;;;13.60;7.05;;;;;;;1.71;100.00;96080.66;5111269;28;20487;-70
2023/12/16 05:45:00;;;;;;;12.27;6.07;;;;;;;1.57;100.00;96086.09;5111361;28;20086;-70
2023/12/16 05:47:47;;;;;;;12.82;6.28;;;;;;;1.35;100.00;96074.13;5101045;28;20040;-70
2023/12/16 05:50:34;;;;;;;26.35;10.27;;;;;;;1.29;100.00;96074.53;5112262;28;20126;-69
2023/12/16 05:53:21;;;;;;;25.83;10.98;;;;;;;1.26;100.00;96072.44;5098289;28;20047;-70
2023/12/16 05:56:09;;;;;;;21.80;9.73;;;;;;;1.19;100.00;96079.06;5111876;28;20144;-70
2023/12/16 05:58:56;;;;;;;16.70;8.10;;;;;;;0.82;100.00;96077.34;5110350;28;20040;-70
2023/12/16 06:01:44;;;;;;;21.73;10.65;;;;;;;0.81;100.00;96080.38;5112944;28;20043;-70
2023/12/16 06:04:31;;;;;;;20.90;9.57;;;;;;;1.06;100.00;96079.84;5112907;28;20069;-70
2023/12/16 06:07:19;;;;;;;17.17;7.93;;;;;;;1.21;100.00;96073.34;5111084;28;20055;-70
2023/12/16 06:10:07;;;;;;;20.38;9.00;;;;;;;1.25;100.00;96074.34;5111270;28;20044;-70
2023/12/16 06:12:54;;;;;;;23.57;10.23;;;;;;;1.25;100.00;96070.81;5110694;28;20134;-70
2023/12/16 06:15:41;;;;;;;31.08;11.73;;;;;;;1.07;100.00;96080.69;5111741;28;20065;-70
2023/12/16 06:18:28;;;;;;;22.77;8.85;;;;;;;0.97;100.00;96077.06;5110919;28;20130;-69
2023/12/16 06:21:15;;;;;;;20.10;7.95;;;;;;;1.05;100.00;96086.38;5111700;28;20480;-69
2023/12/16 06:24:04;;;;;;;18.05;8.07;;;;;;;1.04;100.00;96084.75;5109854;28;20054;-69
2023/12/16 06:26:52;;;;;;;18.83;7.60;;;;;;;0.89;100.00;96085.88;5111314;28;20051;-69
2023/12/16 06:29:39;;;;;;;20.55;7.53;;;;;;;1.02;100.00;96086.19;5110750;28;20058;-69
2023/12/16 06:32:26;;;;;;;16.75;7.50;;;;;;;0.98;100.00;96085.97;5111072;28;20484;-70
2023/12/16 06:35:14;;;;;;;18.73;7.93;;;;;;;1.07;100.00;96094.19;5112278;28;20063;-71
2023/12/16 06:38:01;;;;;;;19.98;8.40;;;;;;;1.16;100.00;96086.97;5110730;28;20496;-70
2023/12/16 06:40:50;;;;;;;21.40;8.23;;;;;;;1.14;100.00;96089.16;5111495;28;20039;-70
2023/12/16 06:43:37;;;;;;;36.80;12.77;;;;;;;1.20;100.00;96099.56;5111641;28;20402;-70
2023/12/16 06:46:23;;;;;;;30.52;11.98;;;;;;;1.11;100.00;96095.19;5112490;28;20081;-70
2023/12/16 06:49:10;;;;;;;25.88;10.07;;;;;;;1.12;100.00;96092.16;5110634;28;20055;-70
2023/12/16 06:51:57;;;;;;;20.48;8.57;;;;;;;1.13;100.00;96093.00;5095835;28;20496;-70
2023/12/16 06:54:44;;;;;;;15.57;6.63;;;;;;;1.11;100.00;96092.50;5111158;28;20059;-70
2023/12/16 06:57:31;;;;;;;12.02;5.68;;;;;;;1.13;100.00;96093.78;5110161;28;20039;-68
2023/12/16 07:00:18;;;;;;;9.48;4.95;;;;;;;1.15;100.00;96088.88;5107513;28;20124;-69
2023/12/16 07:03:05;;;;;;;10.93;5.00;;;;;;;1.14;100.00;96100.00;5108126;28;20386;-70
2023/12/16 07:05:52;;;;;;;9.88;4.75;;;;;;;1.19;100.00;96102.59;5095311;28;20100;-69
2023/12/16 07:08:43;;;;;;;15.67;7.20;;;;;;;1.18;100.00;96107.19;5110608;28;20102;-69
2023/12/16 07:11:29;;;;;;;14.32;6.65;;;;;;;1.24;100.00;96101.69;5087558;28;20408;-69
2023/12/16 07:14:16;;;;;;;16.40;6.70;;;;;;;1.31;100.00;96102.06;5111318;28;20046;-69
2023/12/16 07:17:04;;;;;;;40.30;13.93;;;;;;;1.26;100.00;96105.69;5110903;28;20047;-69
2023/12/16 07:19:50;;;;;;;20.27;9.70;;;;;;;1.19;100.00;96106.09;5112052;28;20040;-69
2023/12/16 07:22:38;;;;;;;19.07;8.57;;;;;;;1.22;100.00;96101.97;5110773;28;20404;-69
2023/12/16 07:25:24;;;;;;;14.60;6.65;;;;;;;1.32;100.00;96107.19;5112550;28;20079;-68
2023/12/16 07:28:11;;;;;;;11.52;5.38;;;;;;;1.40;100.00;96105.69;5105493;28;20044;-68
2023/12/16 07:30:59;;;;;;;11.95;5.53;;;;;;;1.49;100.00;96103.03;5116074;28;20404;-68
2023/12/16 07:33:46;;;;;;;10.15;5.53;;;;;;;1.42;100.00;96106.16;5115181;28;20063;-68
2023/12/16 07:36:33;;;;;;;11.53;5.40;;;;;;;1.41;100.00;96115.41;5111908;28;20404;-68
2023/12/16 07:39:20;;;;;;;15.93;6.80;;;;;;;1.10;100.00;96105.19;5109092;28;20051;-68
2023/12/16 07:42:07;;;;;;;16.27;8.43;;;;;;;0.85;100.00;96108.41;5116236;28;20054;-68
2023/12/16 07:44:54;;;;;;;13.15;7.25;;;;;;;0.99;100.00;96128.94;5115009;28;20047;-68
2023/12/16 07:47:40;;;;;;;13.35;6.10;;;;;;;1.03;100.00;96126.44;5115191;28;20180;-68
2023/12/16 07:50:28;;;;;;;14.00;6.93;;;;;;;1.07;100.00;96124.75;5116454;28;20047;-68
2023/12/16 07:53:15;;;;;;;15.63;7.47;;;;;;;1.12;100.00;96124.63;5115400;28;20058;-69
2023/12/16 07:56:02;;;;;;;15.52;7.50;;;;;;;1.13;100.00;96120.03;5114650;28;20067;-68
2023/12/16 07:58:53;;;;;;;16.90;7.90;;;;;;;1.09;100.00;96121.75;5113362;28;20052;-68
2023/12/16 08:01:40;;;;;;;18.20;8.70;;;;;;;1.05;100.00;96124.22;5115298;28;20392;-68
2023/12/16 08:04:27;;;;;;;22.00;10.43;;;;;;;0.87;100.00;96128.63;5115360;28;20043;-68
2023/12/16 08:07:14;;;;;;;26.00;13.23;;;;;;;0.90;100.00;96129.91;5108343;28;20123;-68
2023/12/16 08:10:01;;;;;;;17.70;8.80;;;;;;;2.23;100.00;96127.09;5108134;28;20039;-68
2023/12/16 08:12:48;;;;;;;14.02;6.78;;;;;;;5.26;100.00;96131.75;5113991;28;20050;-68
2023/12/16 08:15:35;;;;;;;12.98;6.93;;;;;;;6.98;100.00;96121.81;5113646;28;20521;-68
2023/12/16 08:18:22;;;;;;;12.70;6.27;;;;;;;8.00;100.00;96122.72;5114821;28;20055;-67
2023/12/16 08:21:09;;;;;;;11.00;5.97;;;;;;;10.27;100.00;96112.91;5114513;28;20051;-68
2023/12/16 08:23:55;;;;;;;10.48;5.88;;;;;;;10.34;90.86;96115.03;5114028;28;20070;-67
2023/12/16 08:26:42;;;;;;;13.65;6.85;;;;;;;11.54;90.95;96120.41;5099321;28;20058;-68
2023/12/16 08:29:29;;;;;;;27.20;13.27;;;;;;;11.46;80.11;96117.94;5114351;28;20110;-69
2023/12/16 08:32:16;;;;;;;12.60;6.83;;;;;;;13.24;74.82;96104.16;5101885;28;20059;-68
2023/12/16 08:35:04;;;;;;;9.05;5.68;;;;;;;15.63;61.30;96098.28;5093099;28;20100;-68
2023/12/16 08:37:51;;;;;;;7.82;4.80;;;;;;;14.14;57.69;96100.94;5103821;28;20055;-68
2023/12/16 08:40:38;;;;;;;11.02;6.60;;;;;;;12.16;65.24;96098.19;5109417;28;20039;-69
2023/12/16 08:43:25;;;;;;;11.30;6.90;;;;;;;14.64;61.55;96114.25;5112040;28;20044;-68
2023/12/16 08:46:12;;;;;;;7.53;4.70;;;;;;;15.44;57.33;96105.00;5112600;28;20536;-69
2023/12/16 08:48:59;;;;;;;6.53;4.10;;;;;;;14.89;52.37;96110.78;5109549;28;20044;-69
2023/12/16 08:51:48;;;;;;;6.05;3.88;;;;;;;14.91;52.91;96117.53;5110822;28;20065;-69
2023/12/16 08:54:36;;;;;;;6.80;4.55;;;;;;;14.25;56.61;96131.41;5107795;28;20097;-69
2023/12/16 08:57:26;;;;;;;8.23;5.10;;;;;;;14.81;54.72;96126.59;5112819;28;20071;-69
2023/12/16 09:00:13;;;;;;;9.73;6.40;;;;;;;14.85;52.80;96129.34;5112608;28;20047;-69
2023/12/16 09:03:00;;;;;;;9.20;6.30;;;;;;;15.14;52.29;96127.47;5111643;28;20048;-70
2023/12/16 09:05:47;;;;;;;9.02;6.18;;;;;;;14.31;53.77;96124.34;5109251;28;20039;-69
2023/12/16 09:08:34;;;;;;;9.38;6.75;;;;;;;13.62;55.58;96129.75;5112275;28;20495;-70
2023/12/16 09:11:21;;;;;;;8.93;6.32;;;;;;;14.60;53.85;96124.50;5108435;28;20047;-70
2023/12/16 09:14:08;;;;;;;8.00;5.50;;;;;;;14.85;54.44;96130.16;5109322;28;20055;-69
2023/12/16 09:16:55;;;;;;;7.57;5.20;;;;;;;15.78;50.74;96132.34;5111445;28;20051;-70
2023/12/16 09:19:42;;;;;;;7.40;5.18;;;;;;;15.30;50.51;96138.19;5109203;28;20051;-70
2023/12/16 09:22:29;;;;;;;6.50;4.28;;;;;;;15.75;49.03;96145.00;5112127;28;20043;-69
2023/12/16 09:25:15;;;;;;;7.78;5.35;;;;;;;14.30;48.31;96150.34;5112105;28;20051;-69
2023/12/16 09:28:02;;;;;;;6.63;4.40;;;;;;;12.44;56.77;96154.81;5105142;28;20493;-70
2023/12/16 09:30:49;;;;;;;7.10;4.45;;;;;;;12.44;58.35;96157.56;5109215;28;20063;-71
2023/12/16 09:33:37;;;;;;;7.18;4.57;;;;;;;11.56;66.80;96156.59;5094637;28;20048;-70
2023/12/16 09:36:27;;;;;;;5.43;3.50;;;;;;;12.05;59.24;96159.75;5110881;28;20047;-70
2023/12/16 09:39:14;;;;;;;5.13;3.55;;;;;;;12.24;68.21;96156.91;5109825;28;20039;-70
2023/12/16 09:42:03;;;;;;;7.80;4.67;;;;;;;10.13;73.85;96164.72;5111166;28;20052;-71
2023/12/16 09:44:56;;;;;;;9.20;4.20;;;;;;;12.59;65.61;96148.31;5110566;28;20054;-70
2023/12/16 09:47:44;;;;;;;6.22;4.40;;;;;;;9.59;80.51;96157.97;5111422;28;20040;-70
2023/12/16 09:50:33;;;;;;;6.90;4.53;;;;;;;10.51;84.72;96155.00;5110675;28;20507;-73
2023/12/16 09:53:20;;;;;;;6.53;4.28;;;;;;;15.82;55.91;96143.41;5110667;28;20060;-67
2023/12/16 09:56:09;;;;;;;6.13;4.17;;;;;;;16.41;49.58;96140.97;5109389;28;20514;-65
2023/12/16 09:58:57;;;;;;;7.53;4.88;;;;;;;11.07;63.52;96151.00;5108749;28;20059;-66
2023/12/16 10:01:53;;;;;;;7.80;5.05;;;;;;;11.37;76.57;96156.66;5110892;28;20051;-66
2023/12/16 10:04:41;;;;;;;7.00;4.70;;;;;;;12.29;69.65;96142.00;5108781;28;20040;-67
2023/12/16 10:07:28;;;;;;;8.20;5.10;;;;;;;12.41;64.07;96141.78;5111748;28;20036;-66
2023/12/16 10:10:15;;;;;;;7.93;5.40;;;;;;;15.28;55.96;96133.03;5110864;28;20124;-66
2023/12/16 10:13:04;;;;;;;8.63;5.10;;;;;;;17.09;49.18;96118.56;5109369;28;20062;-67
2023/12/16 10:15:51;;;;;;;8.07;5.70;;;;;;;17.72;45.22;96126.88;5111214;28;20607;-67
2023/12/16 10:18:38;;;;;;;9.18;6.28;;;;;;;13.12;56.15;96127.25;5109355;28;20043;-67
2023/12/16 10:21:26;;;;;;;8.65;6.13;;;;;;;14.26;60.40;96130.22;5110159;28;20082;-67
2023/12/16 10:24:14;;;;;;;9.20;6.70;;;;;;;12.83;62.50;96124.22;5109209;28;20048;-67
2023/12/16 10:27:03;;;;;;;9.18;6.72;;;;;;;12.64;65.98;96127.94;5108847;28;20055;-67
2023/12/16 10:29:52;;;;;;;9.27;6.80;;;;;;;11.39;69.70;96138.63;5107745;28;20055;-66
2023/12/16 10:32:56;;;;;;;8.85;6.32;;;;;;;12.58;59.62;96132.97;5098279;28;20051;-65
2023/12/16 10:35:43;;;;;;;8.35;5.95;;;;;;;14.34;55.31;96126.31;5109592;28;20035;-66
2023/12/16 10:38:30;;;;;;;8.53;6.60;;;;;;;10.03;82.13;96135.13;5110725;28;20052;-68
2023/12/16 10:41:17;;;;;;;8.05;5.53;;;;;;;12.19;75.21;96122.25;5107462;28;20055;-71
2023/12/16 10:44:04;;;;;;;8.02;5.72;;;;;;;12.55;70.54;96119.94;5109127;28;20132;-67
2023/12/16 10:46:54;;;;;;;9.20;4.95;;;;;;;16.36;53.38;96117.22;5110822;28;20055;-68
2023/12/16 10:49:46;;;;;;;7.38;5.20;;;;;;;16.17;52.33;96110.13;5108630;28;20047;-67
2023/12/16 10:52:39;;;;;;;7.40;5.20;;;;;;;15.72;53.93;96112.56;5108440;28;20051;-66
2023/12/16 10:55:34;;;;;;;7.90;4.25;;;;;;;16.76;49.36;96108.78;5109596;28;20048;-67
2023/12/16 10:58:25;;;;;;;7.53;3.83;;;;;;;19.69;41.95;96098.84;5104719;28;20055;-65
2023/12/16 11:01:21;;;;;;;5.75;3.70;;;;;;;20.79;38.87;96100.13;5112258;27;20050;-65
2023/12/16 11:04:14;;;;;;;5.13;3.30;;;;;;;18.33;38.53;96104.16;5113802;28;20043;-67
2023/12/16 11:07:10;;;;;;;3.20;2.10;;;;;;;17.31;42.91;96104.59;5114455;28;20416;-63
2023/12/16 11:09:58;;;;;;;4.28;2.60;;;;;;;17.25;42.03;96082.00;5115470;28;20058;-63
2023/12/16 11:12:45;;;;;;;3.30;2.35;;;;;;;16.43;44.59;96090.69;5114575;28;20055;-63
2023/12/16 11:15:34;;;;;;;3.10;2.00;;;;;;;20.49;37.50;96075.97;5112476;28;20050;-63
2023/12/16 11:18:29;;;;;;;3.45;2.33;;;;;;;10.54;56.59;96096.63;5112298;28;20047;-62
2023/12/16 11:21:19;;;;;;;3.97;2.40;;;;;;;12.89;59.52;96094.34;5113547;28;20048;-62
2023/12/16 11:24:06;;;;;;;4.78;2.83;;;;;;;10.47;64.87;96097.28;5111750;28;20052;-62
2023/12/16 11:26:53;;;;;;;4.22;2.63;;;;;;;15.41;52.15;96080.88;5110493;28;20044;-64
2023/12/16 11:29:41;;;;;;;3.83;2.50;;;;;;;18.67;42.61;96072.81;5111440;28;20408;-64
2023/12/16 11:32:28;;;;;;;4.22;2.53;;;;;;;14.96;46.52;96075.66;5114100;28;20050;-67
2023/12/16 11:35:35;;;;;;;4.10;2.77;;;;;;;9.40;81.04;96090.19;5112426;28;20449;-62
2023/12/16 11:38:34;;;;;;;5.40;3.38;;;;;;;10.35;73.12;96081.75;5113973;28;20192;-62
2023/12/16 11:41:37;;;;;;;5.10;2.80;;;;;;;10.92;67.94;96078.50;5113313;28;20506;-62
2023/12/16 11:44:47;;;;;;;4.70;2.70;;;;;;;12.11;62.76;96068.25;5111789;28;20047;-62
2023/12/16 11:47:34;;;;;;;8.85;4.50;;;;;;;12.51;60.79;96061.25;5097771;28;20048;-62
2023/12/16 11:50:21;;;;;;;10.40;5.27;;;;;;;12.73;59.42;96054.03;5108470;28;20140;-61
2023/12/16 11:53:13;;;;;;;4.68;2.85;;;;;;;15.84;49.80;96047.69;5112691;28;20055;-62
2023/12/16 11:56:00;;;;;;;5.68;3.00;;;;;;;14.97;51.71;96049.63;5110694;28;20066;-62
2023/12/16 11:58:47;;;;;;;4.97;2.63;;;;;;;15.01;51.14;96046.06;5111578;28;20044;-63
2023/12/16 12:01:35;;;;;;;5.40;2.90;;;;;;;18.20;44.94;96041.94;5114116;28;20442;-62
2023/12/16 12:04:22;;;;;;;6.00;2.70;;;;;;;19.70;39.41;96041.91;5109749;28;20043;-62
2023/12/16 12:07:10;;;;;;;5.85;3.00;;;;;;;20.87;37.53;96037.38;5111458;28;20397;-63
2023/12/16 12:09:56;;;;;;;5.13;3.00;;;;;;;20.54;35.99;96040.00;5112356;28;20062;-63
2023/12/16 12:12:43;;;;;;;4.22;2.80;;;;;;;18.12;39.43;96032.13;5111041;28;20489;-62
2023/12/16 12:15:34;;;;;;;5.65;4.03;;;;;;;16.10;41.91;96040.91;5111969;28;20051;-63
2023/12/16 12:18:21;;;;;;;3.60;2.30;;;;;;;14.19;46.39;96031.56;5111105;28;20052;-62
2023/12/16 12:21:10;;;;;;;3.75;2.40;;;;;;;12.15;51.69;96043.50;5110577;28;20055;-60
2023/12/16 12:23:56;;;;;;;4.80;2.60;;;;;;;8.94;80.54;96046.78;5110284;28;20485;-63
2023/12/16 12:26:44;;;;;;;4.07;2.60;;;;;;;10.87;70.06;96030.16;5112780;28;20097;-62
2023/12/16 12:29:52;;;;;;;5.40;2.88;;;;;;;9.34;81.25;96042.28;5110357;28;20051;-61
2023/12/16 12:32:39;;;;;;;5.87;3.30;;;;;;;7.91;97.81;96039.28;5109732;28;20040;-65
2023/12/16 12:35:26;;;;;;;4.90;2.90;;;;;;;7.81;100.00;96048.75;5112662;28;20043;-63
2023/12/16 12:38:19;;;;;;;3.90;2.40;;;;;;;7.35;100.00;96046.19;5112533;28;20548;-63
2023/12/16 12:41:06;;;;;;;4.63;2.78;;;;;;;7.54;100.00;96047.53;5112094;28;20047;-63
2023/12/16 12:43:53;;;;;;;4.38;2.35;;;;;;;8.32;94.60;96054.50;5096117;28;20043;-63
2023/12/16 12:46:48;;;;;;;4.30;2.30;;;;;;;8.56;92.02;96053.63;5112106;28;20047;-63
2023/12/16 12:49:35;;;;;;;4.80;2.60;;;;;;;8.44;93.20;96055.63;5112451;28;20046;-63
2023/12/16 12:52:38;;;;;;;5.68;2.50;;;;;;;7.99;99.67;96041.88;5112344;28;20404;-63
2023/12/16 12:55:47;;;;;;;4.72;2.38;;;;;;;8.63;95.17;96046.75;5105299;28;20128;-65
2023/12/16 12:58:34;;;;;;;4.13;2.30;;;;;;;8.68;94.72;96043.75;5113024;28;20059;-65
2023/12/16 13:01:21;;;;;;;4.33;2.20;;;;;;;8.94;90.88;96043.25;5109273;28;20055;-63
2023/12/16 13:04:08;;;;;;;3.50;2.13;;;;;;;9.05;89.42;96035.31;5112012;28;20054;-63